Time;durP1;ratioP1;P1;durP2;ratioP2;P2;SDS_P1;SDS_P2;PMS_P1;PMS_P2;Temp;Humidity;BMP_temperature;BMP_pressure;BME280_temperature;BME280_humidity;BME280_pressure;Samples;Min_cycle;Max_cycle;Signal;HPM_P1;HPM_P2
2023/10/16 00:03:22;;;;;;;8.73;4.50;;;;;;;;;;10493967;28;20099;-81
2023/10/16 00:08:23;;;;;;;12.40;5.47;;;;;;;;;;10492911;28;20052;-82
2023/10/16 00:13:28;;;;;;;10.97;5.40;;;;;;;;;;10492571;28;20470;-82
2023/10/16 00:18:33;;;;;;;10.33;4.87;;;;;;;;;;10487801;28;20040;-81
2023/10/16 00:23:38;;;;;;;9.85;5.28;;;;;;;;;;10487743;28;20056;-81
2023/10/16 00:28:44;;;;;;;9.90;4.93;;;;;;;;;;10492287;28;20036;-81
2023/10/16 00:33:45;;;;;;;;;;;;;;;;;;10495497;28;20062;-81
2023/10/16 00:38:49;;;;;;;7.70;4.00;;;;;;;;;;10500995;28;19970;-81
2023/10/16 00:43:52;;;;;;;5.90;3.70;;;;;;;;;;10490316;28;20676;-81
2023/10/16 00:48:53;;;;;;;8.40;3.60;;;;;;;;;;10499520;28;20036;-81
2023/10/16 00:53:54;;;;;;;7.43;3.50;;;;;;;;;;10497771;28;20040;-81
2023/10/16 00:58:56;;;;;;;7.03;3.83;;;;;;;;;;10494206;28;20469;-81
2023/10/16 01:03:57;;;;;;;9.33;3.60;;;;;;;;;;10486595;28;20781;-81
2023/10/16 01:08:58;;;;;;;10.17;3.80;;;;;;;;;;10493148;28;20035;-81
2023/10/16 01:13:59;;;;;;;5.10;2.90;;;;;;;;;;10485733;28;20494;-80
2023/10/16 01:19:01;;;;;;;9.10;3.20;;;;;;;;;;10486796;28;20055;-81
2023/10/16 01:24:12;;;;;;;8.00;3.30;;;;;;;;;;10492403;28;20068;-81
2023/10/16 01:29:15;;;;;;;8.87;3.50;;;;;;;;;;10501000;28;20028;-81
2023/10/16 01:34:16;;;;;;;7.23;3.37;;;;;;;;;;10489563;28;20052;-81
2023/10/16 01:44:39;;;;;;;5.67;2.80;;;;;;;;;;10497028;28;20040;-81
2023/10/16 01:49:41;;;;;;;5.93;3.00;;;;;;;;;;10485742;28;20032;-81
2023/10/16 01:54:46;;;;;;;4.50;2.90;;;;;;;;;;10494682;28;20044;-82
2023/10/16 01:59:51;;;;;;;6.03;2.63;;;;;;;;;;10486345;28;20115;-80
2023/10/16 02:04:52;;;;;;;9.30;3.33;;;;;;;;;;10489172;28;20110;-81
2023/10/16 02:09:54;;;;;;;5.03;2.63;;;;;;;;;;10492557;28;20490;-81
2023/10/16 02:14:56;;;;;;;6.63;2.90;;;;;;;;;;10486853;28;20476;-81
2023/10/16 02:19:57;;;;;;;4.77;3.40;;;;;;;;;;10485101;28;20071;-80
2023/10/16 02:24:59;;;;;;;6.47;3.23;;;;;;;;;;10488600;28;20448;-79
2023/10/16 02:30:14;;;;;;;8.30;3.43;;;;;;;;;;10483938;28;20369;-80
2023/10/16 02:35:15;;;;;;;6.43;3.27;;;;;;;;;;10495600;28;20047;-80
2023/10/16 02:40:17;;;;;;;5.90;2.87;;;;;;;;;;10507420;28;20036;-81
2023/10/16 02:45:25;;;;;;;9.83;4.20;;;;;;;;;;10487087;28;20479;-82
2023/10/16 02:50:26;;;;;;;7.97;3.37;;;;;;;;;;10467748;28;20545;-81
2023/10/16 02:55:27;;;;;;;6.57;2.97;;;;;;;;;;10504804;28;20139;-81
2023/10/16 03:00:34;;;;;;;7.20;4.50;;;;;;;;;;10491490;28;20031;-81
2023/10/16 03:05:39;;;;;;;14.03;5.70;;;;;;;;;;10514803;28;20085;-81
2023/10/16 03:10:40;;;;;;;15.63;5.73;;;;;;;;;;10516241;28;20053;-82
2023/10/16 03:15:58;;;;;;;8.43;3.20;;;;;;;;;;10491662;28;20045;-81
2023/10/16 03:26:25;;;;;;;13.43;5.27;;;;;;;;;;10548389;28;20046;-82
2023/10/16 03:31:36;;;;;;;10.70;4.60;;;;;;;;;;10555664;28;20050;-83
2023/10/16 03:36:37;;;;;;;7.80;3.90;;;;;;;;;;10518437;28;20047;-83
2023/10/16 03:41:39;;;;;;;8.47;4.80;;;;;;;;;;10547077;28;20098;-82
2023/10/16 03:46:41;;;;;;;8.40;4.63;;;;;;;;;;10531899;28;20660;-82
2023/10/16 03:51:44;;;;;;;16.53;7.63;;;;;;;;;;10545749;28;20494;-82
2023/10/16 03:56:45;;;;;;;12.53;5.37;;;;;;;;;;10564511;28;20032;-84
2023/10/16 04:01:47;;;;;;;10.67;4.90;;;;;;;;;;10535868;28;20075;-82
2023/10/16 04:06:48;;;;;;;11.83;5.20;;;;;;;;;;10539072;28;20027;-82
2023/10/16 04:11:54;;;;;;;11.60;5.03;;;;;;;;;;10541988;28;20103;-81
2023/10/16 04:16:55;;;;;;;12.05;5.22;;;;;;;;;;10530879;28;20392;-82
2023/10/16 04:32:19;;;;;;;11.20;5.17;;;;;;;;;;10536598;28;20502;-82
2023/10/16 04:37:29;;;;;;;8.43;4.47;;;;;;;;;;10529170;28;20028;-82
2023/10/16 04:53:07;;;;;;;16.50;6.00;;;;;;;;;;10527991;28;20027;-82
2023/10/16 05:03:35;;;;;;;9.43;6.00;;;;;;;;;;10531252;28;20464;-81
2023/10/16 05:08:49;;;;;;;11.33;5.13;;;;;;;;;;10548453;28;20165;-81
2023/10/16 05:14:04;;;;;;;7.80;4.73;;;;;;;;;;10531345;28;20036;-82
2023/10/16 06:17:40;;;;;;;14.40;5.77;;;;;;;;;;10531224;28;20048;-82
2023/10/16 06:22:50;;;;;;;13.27;5.27;;;;;;;;;;10512531;28;20048;-81
2023/10/16 06:27:51;;;;;;;11.20;5.03;;;;;;;;;;10505802;28;20063;-81
2023/10/16 06:32:52;;;;;;;8.43;4.70;;;;;;;;;;10515258;28;20125;-83
2023/10/16 06:37:55;;;;;;;14.30;4.80;;;;;;;;;;10505432;28;20043;-83
2023/10/16 06:43:15;;;;;;;14.40;6.10;;;;;;;;;;10511887;28;20110;-82
2023/10/16 06:48:16;;;;;;;10.90;5.53;;;;;;;;;;10507585;28;20034;-83
2023/10/16 06:53:18;;;;;;;11.37;5.40;;;;;;;;;;10513758;28;20501;-82
2023/10/16 06:58:23;;;;;;;12.33;5.63;;;;;;;;;;10499841;28;20059;-82
2023/10/16 07:03:24;;;;;;;10.43;4.90;;;;;;;;;;10502366;28;20017;-82
2023/10/16 07:08:25;;;;;;;14.77;5.47;;;;;;;;;;10498894;28;20026;-84
2023/10/16 07:13:26;;;;;;;11.17;4.90;;;;;;;;;;10501948;28;20040;-80
2023/10/16 07:18:31;;;;;;;11.10;5.00;;;;;;;;;;10495662;28;20040;-83
2023/10/16 07:23:36;;;;;;;13.70;4.60;;;;;;;;;;10501046;28;20055;-82
2023/10/16 07:28:40;;;;;;;33.87;13.67;;;;;;;;;;10510016;28;20032;-84
2023/10/16 07:33:42;;;;;;;9.73;5.13;;;;;;;;;;10515289;28;20036;-83
2023/10/16 07:38:44;;;;;;;11.67;4.87;;;;;;;;;;10510111;28;20085;-82
2023/10/16 07:43:46;;;;;;;8.27;4.43;;;;;;;;;;10510627;28;20077;-82
2023/10/16 07:48:51;;;;;;;9.03;3.77;;;;;;;;;;10494488;28;20057;-82
2023/10/16 07:53:53;;;;;;;6.73;3.87;;;;;;;;;;10496290;28;20033;-81
2023/10/16 07:59:06;;;;;;;6.90;3.57;;;;;;;;;;10501656;28;20032;-81
2023/10/16 08:04:18;;;;;;;9.13;3.63;;;;;;;;;;10475595;28;20548;-82
2023/10/16 08:14:25;;;;;;;15.43;7.17;;;;;;;;;;10501642;28;20462;-80
2023/10/16 08:19:26;;;;;;;7.50;4.23;;;;;;;;;;10496188;28;20024;-81
2023/10/16 08:24:28;;;;;;;10.13;5.03;;;;;;;;;;10506042;28;20492;-83
2023/10/16 08:29:34;;;;;;;7.10;4.73;;;;;;;;;;10481700;28;20031;-83
2023/10/16 08:34:35;;;;;;;9.15;5.10;;;;;;;;;;10500576;28;20520;-82
2023/10/16 08:39:36;;;;;;;8.27;5.00;;;;;;;;;;10487562;28;20037;-82
2023/10/16 08:44:39;;;;;;;9.60;4.93;;;;;;;;;;10496658;28;20532;-82
2023/10/16 08:49:40;;;;;;;9.63;5.37;;;;;;;;;;10489703;28;20066;-82
2023/10/16 08:59:58;;;;;;;14.87;8.30;;;;;;;;;;10489955;28;20039;-83
2023/10/16 09:05:02;;;;;;;10.27;4.67;;;;;;;;;;10498556;28;20028;-85
2023/10/16 09:10:03;;;;;;;6.30;3.30;;;;;;;;;;10488441;28;20100;-86
2023/10/16 09:15:05;;;;;;;9.47;4.03;;;;;;;;;;10488218;28;20530;-84
2023/10/16 09:20:13;;;;;;;9.07;3.20;;;;;;;;;;10486473;28;20496;-84
2023/10/16 09:25:22;;;;;;;10.60;5.17;;;;;;;;;;10495720;28;20800;-83
2023/10/16 09:30:32;;;;;;;9.10;3.93;;;;;;;;;;10499627;28;20063;-83
2023/10/16 09:35:33;;;;;;;8.20;3.53;;;;;;;;;;10485585;28;20032;-83
2023/10/16 09:40:38;;;;;;;11.30;4.40;;;;;;;;;;10486001;28;20119;-84
2023/10/16 09:45:39;;;;;;;11.40;4.27;;;;;;;;;;10485913;28;20024;-85
2023/10/16 09:50:42;;;;;;;8.40;3.70;;;;;;;;;;10487093;28;20032;-85
2023/10/16 09:55:48;;;;;;;11.00;4.57;;;;;;;;;;10496530;28;20384;-84
2023/10/16 10:00:51;;;;;;;12.10;4.35;;;;;;;;;;10480565;28;20088;-85
2023/10/16 10:06:08;;;;;;;7.38;2.97;;;;;;;;;;10471690;28;20080;-84
2023/10/16 10:11:23;;;;;;;11.30;3.03;;;;;;;;;;10486955;28;20107;-84
2023/10/16 10:16:29;;;;;;;9.50;2.50;;;;;;;;;;10470534;28;20443;-86
2023/10/16 10:21:44;;;;;;;8.25;3.28;;;;;;;;;;10482297;28;20471;-85
2023/10/16 10:26:48;;;;;;;6.22;2.60;;;;;;;;;;10471120;28;20032;-84
2023/10/16 10:31:51;;;;;;;17.33;7.38;;;;;;;;;;10479355;28;20029;-83
2023/10/16 10:36:53;;;;;;;10.70;3.55;;;;;;;;;;10465038;28;20040;-82
2023/10/16 10:42:03;;;;;;;7.65;3.05;;;;;;;;;;10484569;28;20025;-85
2023/10/16 10:47:20;;;;;;;9.63;3.10;;;;;;;;;;10484472;28;20021;-85
2023/10/16 10:52:22;;;;;;;8.15;3.15;;;;;;;;;;10497997;28;20039;-83
2023/10/16 10:57:24;;;;;;;10.23;4.18;;;;;;;;;;10484176;28;20090;-83
2023/10/16 11:07:39;;;;;;;7.82;2.83;;;;;;;;;;10483591;28;20033;-82
2023/10/16 11:12:40;;;;;;;9.93;4.07;;;;;;;;;;10490156;28;20029;-82
2023/10/16 11:17:51;;;;;;;14.03;3.87;;;;;;;;;;10491323;28;20037;-84
2023/10/16 11:22:56;;;;;;;15.03;5.67;;;;;;;;;;10490249;28;20060;-84
2023/10/16 11:27:57;;;;;;;12.63;4.90;;;;;;;;;;10490974;28;20046;-82
2023/10/16 11:32:58;;;;;;;14.37;5.40;;;;;;;;;;10490616;28;20104;-83
2023/10/16 11:37:59;;;;;;;12.37;5.43;;;;;;;;;;10490482;28;20168;-83
2023/10/16 11:43:01;;;;;;;23.30;12.17;;;;;;;;;;10489998;28;20085;-84
2023/10/16 11:48:35;;;;;;;13.53;6.67;;;;;;;;;;10489575;28;20029;-85
2023/10/16 11:53:37;;;;;;;20.03;8.20;;;;;;;;;;10489517;28;20852;-83
2023/10/16 11:58:38;;;;;;;63.13;28.17;;;;;;;;;;10489567;28;20039;-82
2023/10/16 12:03:40;;;;;;;26.33;16.07;;;;;;;;;;10492331;28;20020;-81
2023/10/16 12:08:41;;;;;;;42.90;24.30;;;;;;;;;;10498755;28;20017;-81
2023/10/16 12:13:42;;;;;;;12.10;6.70;;;;;;;;;;10488573;28;20029;-83
2023/10/16 12:18:43;;;;;;;25.33;12.00;;;;;;;;;;10489614;28;20078;-84
2023/10/16 12:23:44;;;;;;;24.20;13.03;;;;;;;;;;10492600;28;20057;-84
2023/10/16 12:28:45;;;;;;;35.00;15.47;;;;;;;;;;10490344;28;20036;-84
2023/10/16 12:33:46;;;;;;;11.23;4.50;;;;;;;;;;10472231;28;20045;-84
2023/10/16 12:38:47;;;;;;;10.20;5.27;;;;;;;;;;10488276;28;20032;-84
2023/10/16 12:43:49;;;;;;;17.95;9.43;;;;;;;;;;10490662;28;20036;-84
2023/10/16 12:48:50;;;;;;;14.77;7.65;;;;;;;;;;10502812;28;20024;-83
2023/10/16 12:53:51;;;;;;;15.63;6.55;;;;;;;;;;10490977;28;20028;-83
2023/10/16 12:59:00;;;;;;;15.95;6.90;;;;;;;;;;10500045;28;20075;-84
2023/10/16 13:04:01;;;;;;;12.75;6.85;;;;;;;;;;10486421;28;20024;-83
2023/10/16 13:09:03;;;;;;;12.23;4.68;;;;;;;;;;10500760;28;20028;-83
2023/10/16 13:14:05;;;;;;;8.13;3.95;;;;;;;;;;10501692;28;20040;-83
2023/10/16 13:19:09;;;;;;;14.32;5.70;;;;;;;;;;10496438;28;20036;-83
2023/10/16 13:24:19;;;;;;;10.57;4.60;;;;;;;;;;10489603;28;20106;-83
2023/10/16 13:29:21;;;;;;;5.70;3.10;;;;;;;;;;10499266;28;20123;-83
2023/10/16 13:34:22;;;;;;;5.37;2.27;;;;;;;;;;10486506;28;20028;-82
2023/10/16 13:39:26;;;;;;;7.30;3.17;;;;;;;;;;10490706;28;20383;-83
2023/10/16 13:44:29;;;;;;;7.93;3.10;;;;;;;;;;10498624;28;20078;-83
2023/10/16 13:49:30;;;;;;;5.73;2.80;;;;;;;;;;10484911;28;20056;-83
2023/10/16 13:54:31;;;;;;;10.00;3.40;;;;;;;;;;10499430;28;20456;-82
2023/10/16 13:59:33;;;;;;;17.67;9.17;;;;;;;;;;10485782;28;20037;-83
2023/10/16 14:04:34;;;;;;;26.27;13.67;;;;;;;;;;10488653;28;20486;-83
2023/10/16 14:09:35;;;;;;;19.57;9.80;;;;;;;;;;10494288;28;20032;-83
2023/10/16 14:14:36;;;;;;;15.53;6.53;;;;;;;;;;10498697;28;20636;-83
2023/10/16 14:19:37;;;;;;;13.80;5.60;;;;;;;;;;10496883;28;20043;-84
2023/10/16 14:24:45;;;;;;;12.80;4.50;;;;;;;;;;10487386;28;20105;-82
2023/10/16 14:29:48;;;;;;;21.63;10.60;;;;;;;;;;10491607;28;20068;-82
2023/10/16 14:34:49;;;;;;;17.47;8.00;;;;;;;;;;10484622;28;20120;-80
2023/10/16 14:39:51;;;;;;;23.23;11.33;;;;;;;;;;10490884;28;20024;-83
2023/10/16 14:44:54;;;;;;;52.30;22.33;;;;;;;;;;10492020;28;20078;-81
2023/10/16 14:49:55;;;;;;;20.33;8.80;;;;;;;;;;10492502;28;20098;-81
2023/10/16 14:54:56;;;;;;;22.07;8.80;;;;;;;;;;10495385;28;20040;-82
2023/10/16 14:59:57;;;;;;;17.33;8.97;;;;;;;;;;10473875;28;20089;-83
2023/10/16 15:04:59;;;;;;;40.73;19.30;;;;;;;;;;10473971;28;20033;-82
2023/10/16 15:10:02;;;;;;;25.90;11.73;;;;;;;;;;10494988;28;20029;-82
2023/10/16 15:15:10;;;;;;;15.73;7.23;;;;;;;;;;10491418;28;20040;-80
2023/10/16 15:20:14;;;;;;;20.97;10.67;;;;;;;;;;10493337;28;20065;-80
2023/10/16 15:25:16;;;;;;;24.00;10.03;;;;;;;;;;10496424;28;20052;-79
2023/10/16 15:30:18;;;;;;;27.27;13.07;;;;;;;;;;10500955;28;20069;-80
2023/10/16 15:35:20;;;;;;;28.77;14.57;;;;;;;;;;10492201;28;20067;-82
2023/10/16 15:40:21;;;;;;;48.13;22.00;;;;;;;;;;10502530;28;20032;-79
2023/10/16 15:45:25;;;;;;;77.33;33.17;;;;;;;;;;10489734;28;20044;-79
2023/10/16 15:50:27;;;;;;;66.70;29.30;;;;;;;;;;10490700;28;20032;-79
2023/10/16 15:55:29;;;;;;;62.43;27.03;;;;;;;;;;10495074;28;20504;-79
2023/10/16 16:00:37;;;;;;;92.17;43.03;;;;;;;;;;10491926;28;20070;-79
2023/10/16 16:05:39;;;;;;;234.50;101.07;;;;;;;;;;10499032;28;20142;-81
2023/10/16 16:10:40;;;;;;;410.03;232.63;;;;;;;;;;10489970;28;20029;-80
2023/10/16 16:15:41;;;;;;;329.27;157.07;;;;;;;;;;10471306;28;20071;-80
2023/10/16 16:20:47;;;;;;;149.63;70.57;;;;;;;;;;10499815;28;20028;-79
2023/10/16 16:25:55;;;;;;;117.80;55.05;;;;;;;;;;10490005;28;20060;-79
2023/10/16 16:30:57;;;;;;;89.57;41.77;;;;;;;;;;10527129;28;20032;-80
2023/10/16 16:35:58;;;;;;;140.30;67.97;;;;;;;;;;10504373;28;20051;-81
2023/10/16 16:40:59;;;;;;;187.07;98.07;;;;;;;;;;10496780;28;20040;-84
2023/10/16 16:46:00;;;;;;;117.83;61.93;;;;;;;;;;10487770;28;20032;-82
2023/10/16 16:51:01;;;;;;;99.07;50.73;;;;;;;;;;10495127;28;20039;-81
2023/10/16 16:56:02;;;;;;;74.07;40.17;;;;;;;;;;10491997;28;20036;-80
2023/10/16 17:01:04;;;;;;;24.97;13.13;;;;;;;;;;10494128;28;20032;-82
2023/10/16 17:06:05;;;;;;;69.73;33.97;;;;;;;;;;10488609;28;20040;-82
2023/10/16 17:11:10;;;;;;;46.67;23.07;;;;;;;;;;10486367;28;20487;-80
2023/10/16 17:16:12;;;;;;;81.93;39.20;;;;;;;;;;10486549;28;20040;-81
2023/10/16 17:21:13;;;;;;;23.70;11.13;;;;;;;;;;10488509;28;20282;-82
2023/10/16 17:26:16;;;;;;;29.53;13.80;;;;;;;;;;10489444;28;20076;-81
2023/10/16 17:31:17;;;;;;;19.27;8.97;;;;;;;;;;10492495;28;20158;-82
2023/10/16 17:36:18;;;;;;;81.90;33.90;;;;;;;;;;10487558;28;20483;-80
2023/10/16 17:41:21;;;;;;;60.77;24.27;;;;;;;;;;10494591;28;20016;-80
2023/10/16 17:46:22;;;;;;;60.50;24.27;;;;;;;;;;10496303;28;20035;-82
2023/10/16 17:51:25;;;;;;;68.90;34.10;;;;;;;;;;10513075;28;20394;-80
2023/10/16 17:56:26;;;;;;;75.53;38.10;;;;;;;;;;10490313;28;20079;-80
2023/10/16 18:01:28;;;;;;;36.83;18.60;;;;;;;;;;10495575;28;20035;-81
2023/10/16 18:06:29;;;;;;;32.40;16.53;;;;;;;;;;10497529;28;20484;-80
2023/10/16 18:11:34;;;;;;;52.37;25.80;;;;;;;;;;10504744;28;20031;-81
2023/10/16 18:16:42;;;;;;;39.67;20.93;;;;;;;;;;10503240;28;20040;-80
2023/10/16 18:21:47;;;;;;;43.63;21.00;;;;;;;;;;10503417;28;20043;-81
2023/10/16 18:26:48;;;;;;;28.70;14.77;;;;;;;;;;10503720;28;20127;-81
2023/10/16 18:31:49;;;;;;;28.93;14.43;;;;;;;;;;10504239;28;20037;-80
2023/10/16 18:36:50;;;;;;;41.17;19.87;;;;;;;;;;10503638;28;20578;-81
2023/10/16 18:41:51;;;;;;;48.00;23.53;;;;;;;;;;10513972;28;20036;-80
2023/10/16 18:46:52;;;;;;;37.43;19.10;;;;;;;;;;10501483;28;20047;-80
2023/10/16 18:51:56;;;;;;;22.73;13.23;;;;;;;;;;10494281;28;20040;-80
2023/10/16 18:56:57;;;;;;;23.57;11.43;;;;;;;;;;10491886;28;20464;-81
2023/10/16 19:01:58;;;;;;;26.83;13.10;;;;;;;;;;10500248;28;20082;-80
2023/10/16 19:07:00;;;;;;;22.23;11.37;;;;;;;;;;10493205;28;20036;-80
2023/10/16 19:12:03;;;;;;;17.30;9.53;;;;;;;;;;10491481;28;20115;-80
2023/10/16 19:17:04;;;;;;;17.80;8.73;;;;;;;;;;10490996;28;20048;-81
2023/10/16 19:22:05;;;;;;;20.77;11.80;;;;;;;;;;10491523;28;20036;-79
2023/10/16 19:27:08;;;;;;;21.27;8.70;;;;;;;;;;10498559;28;20039;-80
2023/10/16 19:32:12;;;;;;;22.03;10.50;;;;;;;;;;10490370;28;20035;-81
2023/10/16 19:37:14;;;;;;;20.93;11.60;;;;;;;;;;10497788;28;20040;-79
2023/10/16 19:42:16;;;;;;;23.40;12.03;;;;;;;;;;10490586;28;20078;-80
2023/10/16 19:47:17;;;;;;;29.33;15.13;;;;;;;;;;10499385;28;20480;-80
2023/10/16 19:52:19;;;;;;;39.43;16.00;;;;;;;;;;10502068;28;20073;-80
2023/10/16 19:57:22;;;;;;;40.53;18.90;;;;;;;;;;10496403;28;20040;-80
2023/10/16 20:02:23;;;;;;;55.80;24.60;;;;;;;;;;10495101;28;20452;-80
2023/10/16 20:07:24;;;;;;;52.80;23.70;;;;;;;;;;10490575;28;20032;-80
2023/10/16 20:12:28;;;;;;;41.03;18.70;;;;;;;;;;10489041;28;20121;-80
2023/10/16 20:17:29;;;;;;;44.60;20.50;;;;;;;;;;10498148;28;20050;-80
2023/10/16 20:22:31;;;;;;;33.57;16.00;;;;;;;;;;10499666;28;20428;-82
2023/10/16 20:27:32;;;;;;;26.50;14.93;;;;;;;;;;10492393;28;20033;-80
2023/10/16 20:32:33;;;;;;;36.00;16.77;;;;;;;;;;10488078;28;20077;-80
2023/10/16 20:37:35;;;;;;;32.27;15.53;;;;;;;;;;10495343;28;20103;-79
2023/10/16 20:42:36;;;;;;;35.97;15.97;;;;;;;;;;10487205;28;20028;-80
2023/10/16 20:47:38;;;;;;;35.03;15.93;;;;;;;;;;10488214;28;20145;-80
2023/10/16 20:52:39;;;;;;;33.53;16.03;;;;;;;;;;10491528;28;20024;-81
2023/10/16 20:57:40;;;;;;;35.13;16.90;;;;;;;;;;10487149;28;20039;-81
2023/10/16 21:02:42;;;;;;;39.33;17.63;;;;;;;;;;10492734;28;20024;-80
2023/10/16 21:07:44;;;;;;;42.23;20.20;;;;;;;;;;10486640;28;20032;-80
2023/10/16 21:12:45;;;;;;;36.90;16.93;;;;;;;;;;10499904;28;20123;-80
2023/10/16 21:17:53;;;;;;;37.83;17.77;;;;;;;;;;10489957;28;20040;-80
2023/10/16 21:22:54;;;;;;;39.80;19.10;;;;;;;;;;10485736;28;20440;-79
2023/10/16 21:27:55;;;;;;;41.37;19.30;;;;;;;;;;10485635;28;20028;-80
2023/10/16 21:32:56;;;;;;;46.07;21.63;;;;;;;;;;10489121;28;20028;-80
2023/10/16 21:37:57;;;;;;;36.33;18.97;;;;;;;;;;10486419;28;20033;-80
2023/10/16 21:43:00;;;;;;;37.10;18.57;;;;;;;;;;10487598;28;20059;-81
2023/10/16 21:48:01;;;;;;;36.40;17.23;;;;;;;;;;10491979;28;20075;-80
2023/10/16 21:53:02;;;;;;;34.20;17.23;;;;;;;;;;10485042;28;20401;-80
2023/10/16 21:58:03;;;;;;;42.87;23.07;;;;;;;;;;10488449;28;20036;-80
2023/10/16 22:03:11;;;;;;;44.20;22.20;;;;;;;;;;10471502;28;20024;-80
2023/10/16 22:08:12;;;;;;;60.67;28.27;;;;;;;;;;10485029;28;20029;-80
2023/10/16 22:13:13;;;;;;;35.20;17.40;;;;;;;;;;10485406;28;20024;-80
2023/10/16 22:18:14;;;;;;;36.00;18.53;;;;;;;;;;10500098;28;20064;-80
2023/10/16 22:23:15;;;;;;;40.27;19.37;;;;;;;;;;10489228;28;20063;-80
2023/10/16 22:28:16;;;;;;;33.60;16.73;;;;;;;;;;10492944;28;20387;-80
2023/10/16 22:33:17;;;;;;;32.03;14.57;;;;;;;;;;10487841;28;20028;-80
2023/10/16 22:38:18;;;;;;;27.97;13.77;;;;;;;;;;10488886;28;20029;-79
2023/10/16 22:43:27;;;;;;;22.50;12.03;;;;;;;;;;10487947;28;20024;-80
2023/10/16 22:48:28;;;;;;;24.03;11.17;;;;;;;;;;10488627;28;20051;-79
2023/10/16 22:53:30;;;;;;;27.27;11.77;;;;;;;;;;10498193;28;20039;-79
2023/10/16 22:58:31;;;;;;;20.53;11.33;;;;;;;;;;10503163;28;20032;-79
2023/10/16 23:03:32;;;;;;;19.40;10.07;;;;;;;;;;10500431;28;20021;-79
2023/10/16 23:08:38;;;;;;;21.50;11.13;;;;;;;;;;10503884;28;20044;-82
2023/10/16 23:13:46;;;;;;;23.37;12.73;;;;;;;;;;10496450;28;20040;-80
2023/10/16 23:18:47;;;;;;;24.47;12.07;;;;;;;;;;10500537;28;20080;-80
2023/10/16 23:23:48;;;;;;;19.23;11.17;;;;;;;;;;10500291;28;20064;-80
2023/10/16 23:28:49;;;;;;;20.77;10.83;;;;;;;;;;10499975;28;20062;-80
2023/10/16 23:33:56;;;;;;;23.77;12.33;;;;;;;;;;10497376;28;20036;-80
2023/10/16 23:38:59;;;;;;;23.60;12.07;;;;;;;;;;10501220;28;20735;-80
2023/10/16 23:44:14;;;;;;;23.20;11.70;;;;;;;;;;10490805;28;20040;-80
2023/10/16 23:54:18;;;;;;;23.40;12.43;;;;;;;;;;10489769;28;20035;-80
2023/10/16 23:59:19;;;;;;;23.37;12.93;;;;;;;;;;10501679;28;20131;-80
